DLH3FP EDDM-LGAV
Flight info
| Callsign | DLH3FP |
|---|---|
| Flight time | N/A |
| Altitude | 35000 |
| Route | VAVOR3S/26L VAVOR M867 RADIZ DCT REKTI DCT NEMEK DCT ELTIB DCT PINDO DCT PIKOS UL607 XORKI |
| Aircraft | A321/M-SDE3FGHIRWY/LB1 |
Departure
| Time | N/A |
|---|---|
| Airport | Munich Airport (EDDM) |
Arrival
| Time | 2026-05-05 11:33 |
|---|---|
| Airport | Athens Eleftherios Venizelos International Airport (LGAV) |
| Time | Latitude | Longitude | Altitude | Speed | Heading |
|---|---|---|---|---|---|
| 2026-05-05 10:52 | 40.99665 | 20.43469 | 35126 ft | 497 kts | 144° |
| 2026-05-05 10:53 | 40.94180 | 20.49050 | 35130 ft | 497 kts | 143° |
| 2026-05-05 10:53 | 40.88686 | 20.54631 | 35116 ft | 498 kts | 143° |
| 2026-05-05 10:54 | 40.83186 | 20.60212 | 35116 ft | 499 kts | 143° |
| 2026-05-05 10:54 | 40.77682 | 20.65799 | 35113 ft | 499 kts | 143° |
| 2026-05-05 10:55 | 40.72177 | 20.71376 | 35112 ft | 499 kts | 143° |
| 2026-05-05 10:55 | 40.66661 | 20.76939 | 35105 ft | 499 kts | 143° |
| 2026-05-05 10:56 | 40.61172 | 20.82453 | 35131 ft | 500 kts | 143° |
| 2026-05-05 10:56 | 40.55641 | 20.88005 | 35125 ft | 500 kts | 143° |
| 2026-05-05 10:57 | 40.50068 | 20.93583 | 35120 ft | 500 kts | 143° |
| 2026-05-05 10:57 | 40.44655 | 20.99230 | 35108 ft | 501 kts | 140° |
| 2026-05-05 10:58 | 40.39454 | 21.05308 | 35123 ft | 501 kts | 137° |
| 2026-05-05 10:58 | 40.34317 | 21.11460 | 35123 ft | 500 kts | 138° |
| 2026-05-05 10:59 | 40.29117 | 21.17511 | 35128 ft | 500 kts | 139° |
| 2026-05-05 10:59 | 40.23866 | 21.23481 | 35124 ft | 500 kts | 139° |
| 2026-05-05 11:00 | 40.18612 | 21.29442 | 35109 ft | 500 kts | 139° |
| 2026-05-05 11:00 | 40.13376 | 21.35419 | 35113 ft | 500 kts | 139° |
| 2026-05-05 11:01 | 40.08145 | 21.41394 | 35113 ft | 499 kts | 139° |
| 2026-05-05 11:01 | 40.03795 | 21.46348 | 35114 ft | 500 kts | 139° |
| 2026-05-05 11:02 | 39.98542 | 21.52288 | 35117 ft | 500 kts | 139° |
| 2026-05-05 11:02 | 39.93299 | 21.58232 | 35117 ft | 500 kts | 139° |
| 2026-05-05 11:03 | 39.88057 | 21.64172 | 35109 ft | 500 kts | 139° |
| 2026-05-05 11:03 | 39.82796 | 21.70101 | 35114 ft | 500 kts | 139° |
| 2026-05-05 11:04 | 39.77533 | 21.76014 | 35120 ft | 500 kts | 139° |
| 2026-05-05 11:04 | 39.72269 | 21.81921 | 35131 ft | 500 kts | 139° |
| 2026-05-05 11:05 | 39.66997 | 21.87835 | 35122 ft | 501 kts | 139° |
| 2026-05-05 11:05 | 39.61723 | 21.93731 | 35110 ft | 501 kts | 139° |
| 2026-05-05 11:06 | 39.56439 | 21.99614 | 35111 ft | 501 kts | 139° |
| 2026-05-05 11:06 | 39.51156 | 22.05500 | 35112 ft | 501 kts | 139° |
| 2026-05-05 11:07 | 39.45879 | 22.11373 | 35110 ft | 500 kts | 139° |
| 2026-05-05 11:07 | 39.40591 | 22.17230 | 35116 ft | 500 kts | 139° |
| 2026-05-05 11:08 | 39.35301 | 22.23076 | 35103 ft | 500 kts | 139° |
| 2026-05-05 11:08 | 39.30043 | 22.28882 | 35103 ft | 501 kts | 139° |
| 2026-05-05 11:09 | 39.24747 | 22.34720 | 35108 ft | 501 kts | 139° |
| 2026-05-05 11:09 | 39.19441 | 22.40555 | 35110 ft | 501 kts | 139° |
| 2026-05-05 11:10 | 39.14130 | 22.46378 | 35129 ft | 501 kts | 139° |
| 2026-05-05 11:10 | 39.08812 | 22.52187 | 35105 ft | 501 kts | 139° |
| 2026-05-05 11:10 | 39.06156 | 22.55090 | 34952 ft | 501 kts | 139° |
| 2026-05-05 11:11 | 39.03488 | 22.58007 | 34127 ft | 507 kts | 139° |
| 2026-05-05 11:11 | 39.00806 | 22.60937 | 33554 ft | 503 kts | 139° |
| 2026-05-05 11:11 | 38.98146 | 22.63839 | 32986 ft | 500 kts | 139° |
| 2026-05-05 11:11 | 38.95503 | 22.66718 | 32424 ft | 497 kts | 139° |
| 2026-05-05 11:12 | 38.92871 | 22.69584 | 31857 ft | 494 kts | 139° |
| 2026-05-05 11:12 | 38.90258 | 22.72423 | 31298 ft | 491 kts | 139° |
| 2026-05-05 11:12 | 38.87653 | 22.75244 | 30734 ft | 488 kts | 139° |
| 2026-05-05 11:12 | 38.85066 | 22.78047 | 30186 ft | 486 kts | 139° |
| 2026-05-05 11:13 | 38.82489 | 22.80839 | 29553 ft | 483 kts | 139° |
| 2026-05-05 11:13 | 38.79939 | 22.83598 | 29038 ft | 477 kts | 139° |
| 2026-05-05 11:13 | 38.77415 | 22.86325 | 28488 ft | 472 kts | 139° |
| 2026-05-05 11:13 | 38.74916 | 22.89025 | 27968 ft | 467 kts | 139° |
| 2026-05-05 11:14 | 38.72445 | 22.91694 | 27458 ft | 463 kts | 139° |
| 2026-05-05 11:14 | 38.69996 | 22.94334 | 26953 ft | 458 kts | 139° |
| 2026-05-05 11:14 | 38.67574 | 22.96941 | 26468 ft | 452 kts | 139° |
| 2026-05-05 11:14 | 38.65181 | 22.99520 | 25989 ft | 448 kts | 139° |
| 2026-05-05 11:15 | 38.62806 | 23.02078 | 25526 ft | 444 kts | 139° |
| 2026-05-05 11:15 | 38.60453 | 23.04605 | 25057 ft | 440 kts | 139° |
| 2026-05-05 11:15 | 38.58116 | 23.07110 | 24585 ft | 437 kts | 139° |
| 2026-05-05 11:15 | 38.55798 | 23.09592 | 24131 ft | 434 kts | 139° |
| 2026-05-05 11:16 | 38.53495 | 23.12058 | 23653 ft | 431 kts | 139° |
| 2026-05-05 11:16 | 38.51206 | 23.14511 | 23129 ft | 428 kts | 139° |
| 2026-05-05 11:16 | 38.48934 | 23.16944 | 22644 ft | 423 kts | 139° |
| 2026-05-05 11:16 | 38.46689 | 23.19345 | 22163 ft | 419 kts | 139° |
| 2026-05-05 11:17 | 38.44463 | 23.21724 | 21664 ft | 415 kts | 139° |
| 2026-05-05 11:17 | 38.42258 | 23.24078 | 21181 ft | 412 kts | 139° |
| 2026-05-05 11:17 | 38.40073 | 23.26406 | 20684 ft | 408 kts | 139° |
| 2026-05-05 11:17 | 38.37904 | 23.28714 | 20195 ft | 404 kts | 139° |
| 2026-05-05 11:18 | 38.35757 | 23.30997 | 19713 ft | 401 kts | 139° |
| 2026-05-05 11:18 | 38.33625 | 23.33263 | 19226 ft | 397 kts | 139° |
| 2026-05-05 11:18 | 38.31508 | 23.35508 | 18739 ft | 395 kts | 139° |
| 2026-05-05 11:18 | 38.29405 | 23.37735 | 18238 ft | 392 kts | 139° |
| 2026-05-05 11:19 | 38.27320 | 23.39944 | 17732 ft | 387 kts | 139° |
| 2026-05-05 11:19 | 38.25263 | 23.42124 | 17251 ft | 382 kts | 139° |
| 2026-05-05 11:19 | 38.23231 | 23.44276 | 16797 ft | 378 kts | 139° |
| 2026-05-05 11:19 | 38.21219 | 23.46403 | 16328 ft | 374 kts | 139° |
| 2026-05-05 11:20 | 38.19119 | 23.48316 | 15883 ft | 369 kts | 151° |
| 2026-05-05 11:20 | 38.16773 | 23.49560 | 15468 ft | 363 kts | 165° |
| 2026-05-05 11:20 | 38.14309 | 23.50073 | 15044 ft | 357 kts | 179° |
| 2026-05-05 11:20 | 38.11863 | 23.49870 | 14630 ft | 350 kts | 192° |
| 2026-05-05 11:21 | 38.09476 | 23.49363 | 14219 ft | 346 kts | 191° |
| 2026-05-05 11:21 | 38.07110 | 23.48870 | 13800 ft | 343 kts | 191° |
| 2026-05-05 11:21 | 38.04769 | 23.48390 | 13367 ft | 338 kts | 191° |
| 2026-05-05 11:21 | 38.02466 | 23.47918 | 12968 ft | 333 kts | 191° |
| 2026-05-05 11:22 | 38.00226 | 23.47461 | 12580 ft | 328 kts | 191° |
| 2026-05-05 11:22 | 37.97993 | 23.47004 | 12196 ft | 323 kts | 191° |
| 2026-05-05 11:22 | 37.95785 | 23.46555 | 11821 ft | 320 kts | 190° |
| 2026-05-05 11:22 | 37.93591 | 23.46109 | 11420 ft | 318 kts | 190° |
| 2026-05-05 11:23 | 37.91415 | 23.45665 | 11025 ft | 315 kts | 190° |
| 2026-05-05 11:23 | 37.89257 | 23.45222 | 10627 ft | 314 kts | 190° |
| 2026-05-05 11:23 | 37.87107 | 23.44781 | 10262 ft | 311 kts | 189° |
| 2026-05-05 11:23 | 37.84998 | 23.44349 | 9970 ft | 305 kts | 189° |
| 2026-05-05 11:24 | 37.82928 | 23.43927 | 9823 ft | 301 kts | 190° |
| 2026-05-05 11:24 | 37.80847 | 23.43588 | 9385 ft | 302 kts | 180° |
| 2026-05-05 11:24 | 37.78806 | 23.44131 | 8850 ft | 302 kts | 152° |
| 2026-05-05 11:24 | 37.77161 | 23.45712 | 8379 ft | 298 kts | 126° |
| 2026-05-05 11:25 | 37.76208 | 23.47968 | 7954 ft | 292 kts | 103° |
| 2026-05-05 11:25 | 37.75930 | 23.50486 | 7618 ft | 286 kts | 93° |
| 2026-05-05 11:25 | 37.75724 | 23.52971 | 7173 ft | 283 kts | 94° |
| 2026-05-05 11:25 | 37.75506 | 23.55430 | 6600 ft | 281 kts | 94° |
| 2026-05-05 11:26 | 37.75285 | 23.57872 | 6026 ft | 278 kts | 94° |
| 2026-05-05 11:26 | 37.75066 | 23.60279 | 5566 ft | 274 kts | 94° |
| 2026-05-05 11:26 | 37.74851 | 23.62645 | 5120 ft | 268 kts | 95° |
| 2026-05-05 11:26 | 37.74640 | 23.64967 | 4660 ft | 263 kts | 95° |
| 2026-05-05 11:27 | 37.74433 | 23.67237 | 4262 ft | 257 kts | 95° |
| 2026-05-05 11:27 | 37.74232 | 23.69453 | 4015 ft | 251 kts | 95° |
| 2026-05-05 11:27 | 37.74055 | 23.71626 | 3761 ft | 245 kts | 90° |
| 2026-05-05 11:27 | 37.74303 | 23.73707 | 3515 ft | 238 kts | 68° |
| 2026-05-05 11:28 | 37.75100 | 23.75512 | 3300 ft | 234 kts | 47° |
| 2026-05-05 11:28 | 37.76247 | 23.76828 | 3120 ft | 221 kts | 34° |
| 2026-05-05 11:28 | 37.77473 | 23.77982 | 3009 ft | 214 kts | 34° |
| 2026-05-05 11:28 | 37.78610 | 23.79055 | 3010 ft | 200 kts | 33° |
| 2026-05-05 11:29 | 37.79704 | 23.80089 | 3004 ft | 194 kts | 34° |
| 2026-05-05 11:29 | 37.80796 | 23.81121 | 2976 ft | 192 kts | 34° |
| 2026-05-05 11:29 | 37.81843 | 23.82112 | 2795 ft | 188 kts | 33° |
| 2026-05-05 11:29 | 37.82893 | 23.83114 | 2575 ft | 189 kts | 34° |
| 2026-05-05 11:30 | 37.83963 | 23.84122 | 2323 ft | 192 kts | 34° |
| 2026-05-05 11:30 | 37.85024 | 23.85118 | 2054 ft | 188 kts | 35° |
| 2026-05-05 11:30 | 37.86036 | 23.86091 | 1841 ft | 175 kts | 34° |
| 2026-05-05 11:30 | 37.86969 | 23.86978 | 1593 ft | 160 kts | 33° |
| 2026-05-05 11:31 | 37.87845 | 23.87792 | 1394 ft | 155 kts | 36° |
| 2026-05-05 11:31 | 37.88701 | 23.88601 | 1164 ft | 152 kts | 36° |
| 2026-05-05 11:31 | 37.89537 | 23.89396 | 987 ft | 149 kts | 37° |
| 2026-05-05 11:31 | 37.90366 | 23.90171 | 814 ft | 146 kts | 39° |
| 2026-05-05 11:32 | 37.91174 | 23.90950 | 599 ft | 145 kts | 41° |
| 2026-05-05 11:32 | 37.91974 | 23.91720 | 417 ft | 145 kts | 39° |
| 2026-05-05 11:32 | 37.92769 | 23.92480 | 304 ft | 135 kts | 38° |
| 2026-05-05 11:32 | 37.93398 | 23.93078 | 294 ft | 89 kts | 37° |
| 2026-05-05 11:33 | 37.93754 | 23.93417 | 293 ft | 39 kts | 37° |
| 2026-05-05 11:33 | 37.93921 | 23.93667 | 299 ft | 36 kts | 64° |
| 2026-05-05 11:33 | 37.94009 | 23.93910 | 302 ft | 21 kts | 63° |
| 2026-05-05 11:33 | 37.94110 | 23.94032 | 301 ft | 21 kts | 37° |
| 2026-05-05 11:34 | 37.94228 | 23.94143 | 301 ft | 21 kts | 37° |
| 2026-05-05 11:34 | 37.94350 | 23.94258 | 304 ft | 23 kts | 36° |
| 2026-05-05 11:34 | 37.94477 | 23.94378 | 304 ft | 24 kts | 36° |
| 2026-05-05 11:34 | 37.94612 | 23.94506 | 304 ft | 22 kts | 37° |
| 2026-05-05 11:35 | 37.94691 | 23.94605 | 303 ft | 14 kts | 92° |
| 2026-05-05 11:35 | 37.94631 | 23.94719 | 304 ft | 16 kts | 128° |
| 2026-05-05 11:35 | 37.94559 | 23.94839 | 301 ft | 18 kts | 127° |
| 2026-05-05 11:35 | 37.94481 | 23.94971 | 301 ft | 19 kts | 126° |
| 2026-05-05 11:36 | 37.94397 | 23.95112 | 303 ft | 21 kts | 127° |
| 2026-05-05 11:36 | 37.94308 | 23.95261 | 301 ft | 22 kts | 127° |
| 2026-05-05 11:36 | 37.94215 | 23.95419 | 301 ft | 23 kts | 127° |
| 2026-05-05 11:36 | 37.94142 | 23.95542 | 300 ft | 15 kts | 127° |
| 2026-05-05 11:37 | 37.94054 | 23.95523 | 302 ft | 16 kts | 216° |
| 2026-05-05 11:37 | 37.93963 | 23.95436 | 299 ft | 17 kts | 217° |
| 2026-05-05 11:37 | 37.93888 | 23.95325 | 301 ft | 17 kts | 248° |
| 2026-05-05 11:37 | 37.93836 | 23.95190 | 300 ft | 15 kts | 228° |
| 2026-05-05 11:38 | 37.93796 | 23.95139 | 301 ft | 4 kts | 262° |
| 2026-05-05 11:38 | 37.93812 | 23.95101 | 301 ft | 6 kts | 304° |
| 2026-05-05 11:38 | 37.93829 | 23.95071 | 303 ft | 3 kts | 307° |
| 2026-05-05 11:38 | 37.93836 | 23.95060 | 301 ft | 0 kts | 307° |